Time;durP1;ratioP1;P1;durP2;ratioP2;P2;SDS_P1;SDS_P2;PMS_P1;PMS_P2;Temp;Humidity;BMP_temperature;BMP_pressure;BME280_temperature;BME280_humidity;BME280_pressure;Samples;Min_cycle;Max_cycle;Signal;HPM_P1;HPM_P2
2023/11/12 00:00:49;;;;;;;9.50;3.00;;;;;;;6.01;100.00;99185.05;110308;1270;22215;-77
2023/11/12 00:03:38;;;;;;;12.70;4.00;;;;;;;6.00;100.00;99187.92;110296;1270;22243;-77
2023/11/12 00:06:07;;;;;;;14.10;3.50;;;;;;;6.00;100.00;99191.10;110341;1255;22173;-78
2023/11/12 00:08:35;;;;;;;14.80;4.50;;;;;;;6.01;100.00;99192.02;110331;1270;23084;-77
2023/11/12 00:11:07;;;;;;;10.20;3.80;;;;;;;6.01;100.00;99191.06;110313;1269;22186;-78
2023/11/12 00:13:36;;;;;;;10.60;3.80;;;;;;;6.02;100.00;99191.98;110297;1269;22174;-77
2023/11/12 00:16:06;;;;;;;12.00;3.30;;;;;;;6.02;100.00;99191.88;106201;1276;5413646;-79
2023/11/12 00:18:36;;;;;;;9.00;2.90;;;;;;;6.02;100.00;99193.29;110318;1269;22232;-77
2023/11/12 00:21:05;;;;;;;12.20;3.50;;;;;;;6.03;100.00;99198.56;110361;1262;22229;-79
2023/11/12 00:23:36;;;;;;;12.70;3.20;;;;;;;6.04;100.00;99199.77;110310;1270;22201;-77
2023/11/12 00:26:05;;;;;;;10.10;3.60;;;;;;;6.05;100.00;99198.93;110281;1269;23042;-78
2023/11/12 00:28:34;;;;;;;13.90;4.30;;;;;;;6.06;100.00;99201.29;110355;1276;22336;-77
2023/11/12 00:31:03;;;;;;;11.70;3.60;;;;;;;6.07;100.00;99203.27;110362;1272;22170;-77
2023/11/12 00:33:32;;;;;;;13.00;3.20;;;;;;;6.07;99.98;99206.19;110317;1276;22427;-77
2023/11/12 00:36:01;;;;;;;12.30;4.30;;;;;;;6.08;99.98;99207.58;110329;1270;23304;-77
2023/11/12 00:38:29;;;;;;;10.90;3.90;;;;;;;6.09;99.99;99210.82;110320;1270;22890;-77
2023/11/12 00:40:58;;;;;;;17.70;5.80;;;;;;;6.10;99.95;99206.34;110359;1273;22338;-78
2023/11/12 00:43:28;;;;;;;10.60;3.20;;;;;;;6.10;99.96;99211.60;110317;1273;22724;-77
2023/11/12 00:46:01;;;;;;;15.20;5.20;;;;;;;6.10;100.00;99212.36;110338;1276;22134;-77
2023/11/12 00:48:30;;;;;;;11.40;4.40;;;;;;;6.10;99.80;99209.98;110340;1264;22326;-77
2023/11/12 00:50:58;;;;;;;13.20;4.40;;;;;;;6.11;99.92;99211.86;110331;1270;22214;-77
2023/11/12 00:53:30;;;;;;;11.80;4.50;;;;;;;6.11;99.91;99208.54;110312;1276;22356;-80
2023/11/12 00:55:59;;;;;;;15.00;5.10;;;;;;;6.10;99.87;99209.99;110338;1269;22346;-77
2023/11/12 00:58:28;;;;;;;9.80;3.60;;;;;;;6.11;99.86;99212.08;110325;1276;22359;-78
2023/11/12 01:00:57;;;;;;;13.10;5.20;;;;;;;6.11;99.76;99213.52;110310;1269;22667;-77
2023/11/12 01:03:32;;;;;;;14.80;4.30;;;;;;;6.11;99.84;99215.89;110310;1269;22989;-78
2023/11/12 01:06:02;;;;;;;12.70;5.20;;;;;;;6.11;99.80;99217.12;110320;1276;22336;-77
2023/11/12 01:08:31;;;;;;;17.30;5.50;;;;;;;6.11;99.81;99219.02;110318;1269;22224;-77
2023/11/12 01:11:00;;;;;;;12.90;5.20;;;;;;;6.11;99.76;99217.21;110320;1276;23747;-80
2023/11/12 01:13:29;;;;;;;14.10;5.70;;;;;;;6.11;99.79;99216.27;110333;1273;22358;-77
2023/11/12 01:16:00;;;;;;;16.50;7.10;;;;;;;6.11;99.73;99218.27;110318;1272;22290;-79
2023/11/12 01:18:31;;;;;;;18.20;7.60;;;;;;;6.11;99.65;99219.63;110311;1271;22318;-77
2023/11/12 01:21:00;;;;;;;19.20;7.70;;;;;;;6.11;99.62;99217.86;110338;1276;22661;-77
2023/11/12 01:23:29;;;;;;;17.80;7.80;;;;;;;6.12;99.61;99217.89;107646;1253;23164;-77
2023/11/12 01:25:58;;;;;;;17.10;6.90;;;;;;;6.11;99.56;99220.54;107620;1262;22545;-77
2023/11/12 01:28:29;;;;;;;14.30;5.60;;;;;;;6.10;99.54;99218.95;107340;1272;25342;-77
2023/11/12 01:31:00;;;;;;;15.80;6.70;;;;;;;6.10;99.60;99220.22;107522;1272;24386;-77
2023/11/12 01:33:29;;;;;;;15.90;6.60;;;;;;;6.09;99.71;99217.72;109255;1272;22576;-76
2023/11/12 01:35:59;;;;;;;18.90;7.30;;;;;;;6.09;99.70;99214.14;107527;1272;23007;-78
2023/11/12 01:38:27;;;;;;;17.60;7.30;;;;;;;6.10;99.71;99213.51;107565;1269;22543;-76
2023/11/12 01:41:02;;;;;;;18.60;8.20;;;;;;;6.10;99.68;99217.38;107662;1272;22527;-77
2023/11/12 01:43:33;;;;;;;14.50;6.00;;;;;;;6.10;99.69;99220.77;107802;1276;25476;-77
2023/11/12 01:46:04;;;;;;;14.70;5.90;;;;;;;6.09;99.70;99220.95;107623;1265;23024;-75
2023/11/12 01:48:36;;;;;;;13.80;5.00;;;;;;;6.07;99.63;99220.91;107536;1272;22599;-75
2023/11/12 01:51:06;;;;;;;14.80;5.80;;;;;;;6.06;99.66;99224.05;110366;1272;23399;-75
2023/11/12 01:53:38;;;;;;;16.50;6.00;;;;;;;6.06;99.67;99225.27;110322;1264;22274;-75
2023/11/12 01:56:12;;;;;;;16.30;6.10;;;;;;;6.05;99.69;99229.33;110345;1270;23085;-75
2023/11/12 01:58:43;;;;;;;14.40;5.70;;;;;;;6.05;99.66;99230.59;110334;1276;22404;-78
2023/11/12 02:01:12;;;;;;;12.00;4.90;;;;;;;6.04;99.63;99228.80;110301;1261;22221;-77
2023/11/12 02:03:43;;;;;;;15.40;5.30;;;;;;;6.04;99.58;99228.95;110353;1271;22280;-78
2023/11/12 02:06:12;;;;;;;14.70;6.00;;;;;;;6.05;99.46;99226.25;110325;1276;23417;-77
2023/11/12 02:08:41;;;;;;;14.40;5.20;;;;;;;6.05;99.47;99227.51;110322;1269;23290;-78
2023/11/12 02:11:12;;;;;;;15.70;6.50;;;;;;;6.05;99.40;99226.09;110353;1276;22345;-78
2023/11/12 02:13:43;;;;;;;14.30;5.40;;;;;;;6.05;99.36;99226.34;110337;1269;22357;-78
2023/11/12 02:16:13;;;;;;;14.50;5.60;;;;;;;6.04;99.31;99227.84;110326;1276;23559;-77
2023/11/12 02:18:46;;;;;;;15.40;5.70;;;;;;;6.05;99.20;99228.55;110360;1270;22938;-75
2023/11/12 02:21:21;;;;;;;14.40;5.00;;;;;;;6.05;99.30;99229.41;110310;1276;22186;-76
2023/11/12 02:23:51;;;;;;;13.20;5.30;;;;;;;6.05;99.07;99231.84;110105;1264;22372;-75
2023/11/12 02:26:20;;;;;;;;;;;;;;;6.05;99.03;99228.67;110349;1269;22441;-75
2023/11/12 02:28:49;;;;;;;17.60;5.90;;;;;;;6.05;99.11;99235.67;110326;1273;22188;-78
2023/11/12 02:31:19;;;;;;;14.20;5.00;;;;;;;6.05;99.18;99233.81;110311;1271;22807;-77
2023/11/12 02:33:49;;;;;;;17.50;6.20;;;;;;;6.06;99.04;99234.02;110323;1276;22335;-77
2023/11/12 02:36:19;;;;;;;15.20;5.40;;;;;;;6.08;98.94;99237.75;110329;1276;22223;-77
2023/11/12 02:38:51;;;;;;;14.40;5.60;;;;;;;6.08;99.02;99236.39;110312;1271;23345;-77
2023/11/12 02:41:21;;;;;;;14.30;4.60;;;;;;;6.08;98.90;99238.66;110260;1269;22361;-75
2023/11/12 02:43:50;;;;;;;11.60;4.30;;;;;;;6.09;98.81;99238.71;110250;1272;22337;-76
2023/11/12 02:46:20;;;;;;;12.50;4.20;;;;;;;6.08;98.71;99236.61;110331;1276;22203;-76
2023/11/12 02:49:05;;;;;;;11.00;4.10;;;;;;;6.08;98.62;99238.92;110362;1262;22226;-75
2023/11/12 02:51:34;;;;;;;13.10;4.10;;;;;;;6.08;98.66;99239.56;110228;1276;22255;-75
2023/11/12 02:54:04;;;;;;;10.90;3.80;;;;;;;6.07;98.51;99243.63;110343;1276;22383;-75
2023/11/12 02:56:34;;;;;;;10.30;3.50;;;;;;;6.07;98.49;99242.21;110330;1272;22193;-75
2023/11/12 02:59:04;;;;;;;14.20;4.70;;;;;;;6.06;98.39;99241.70;110373;1273;22248;-75
2023/11/12 03:01:32;;;;;;;12.10;3.90;;;;;;;6.07;98.52;99247.44;110336;1265;22158;-75
2023/11/12 03:04:03;;;;;;;11.80;4.00;;;;;;;6.07;98.41;99245.94;110346;1272;22770;-75
2023/11/12 03:06:53;;;;;;;12.80;3.70;;;;;;;6.06;98.13;99250.65;110365;1276;22207;-77
2023/11/12 03:09:24;;;;;;;10.60;3.50;;;;;;;6.04;98.22;99252.88;110368;1276;22917;-77
2023/11/12 03:11:53;;;;;;;11.40;3.70;;;;;;;6.02;97.95;99255.52;110354;1276;22235;-77
2023/11/12 03:14:22;;;;;;;10.90;3.60;;;;;;;6.00;98.12;99259.95;110332;1269;22218;-77
2023/11/12 03:16:50;;;;;;;10.50;3.30;;;;;;;6.00;98.18;99260.09;110319;1276;23347;-77
2023/11/12 03:19:21;;;;;;;11.80;3.90;;;;;;;5.98;98.10;99261.66;110372;1276;22220;-78
2023/11/12 03:21:52;;;;;;;9.60;3.60;;;;;;;5.97;98.07;99264.17;110352;1276;22225;-78
2023/11/12 03:24:21;;;;;;;12.90;3.30;;;;;;;5.95;98.05;99259.90;110236;1276;22236;-77
2023/11/12 03:26:50;;;;;;;11.50;4.00;;;;;;;5.92;97.77;99266.08;110332;1273;22319;-77
2023/11/12 03:29:19;;;;;;;12.30;3.50;;;;;;;5.90;97.74;99261.44;110375;1276;22216;-78
2023/11/12 03:31:50;;;;;;;15.70;4.20;;;;;;;5.88;97.81;99262.21;110407;1276;22202;-77
2023/11/12 03:34:19;;;;;;;13.70;4.60;;;;;;;5.88;97.71;99261.45;110225;1276;22249;-77
2023/11/12 03:36:50;;;;;;;9.50;3.10;;;;;;;5.86;97.60;99261.70;110359;1276;22228;-77
2023/11/12 03:39:19;;;;;;;13.40;3.90;;;;;;;5.83;97.59;99263.98;110361;1276;21994;-77
2023/11/12 03:41:47;;;;;;;12.90;4.20;;;;;;;5.81;97.65;99261.86;110383;1276;22280;-77
2023/11/12 03:44:16;;;;;;;13.40;3.30;;;;;;;5.79;97.65;99262.38;110380;1276;22875;-78
2023/11/12 03:46:45;;;;;;;10.80;3.40;;;;;;;5.76;97.69;99265.89;109014;1276;22784;-77
2023/11/12 03:49:14;;;;;;;10.50;3.10;;;;;;;5.75;97.76;99266.94;107476;1276;23158;-77
2023/11/12 03:51:44;;;;;;;12.40;3.50;;;;;;;5.74;97.81;99263.59;107540;1273;22558;-77
2023/11/12 03:54:13;;;;;;;10.90;3.20;;;;;;;5.74;97.81;99263.38;107431;1273;22540;-77
2023/11/12 03:56:41;;;;;;;10.70;3.40;;;;;;;5.72;97.78;99260.77;107602;1276;24203;-77
2023/11/12 03:59:11;;;;;;;13.00;3.70;;;;;;;5.71;97.82;99264.84;107610;1276;25501;-76
2023/11/12 04:01:40;;;;;;;13.30;4.10;;;;;;;5.71;97.81;99267.89;110360;1276;22901;-77
2023/11/12 04:04:09;;;;;;;14.70;4.40;;;;;;;5.69;97.74;99264.23;110230;1276;22390;-77
2023/11/12 04:06:38;;;;;;;15.70;4.70;;;;;;;5.67;97.76;99265.75;110352;1276;22249;-77
2023/11/12 04:09:08;;;;;;;15.40;4.10;;;;;;;5.63;97.66;99263.95;110328;1276;22194;-78
2023/11/12 04:11:40;;;;;;;12.90;5.00;;;;;;;5.62;97.88;99267.13;110360;1276;22202;-77
2023/11/12 04:14:20;;;;;;;15.00;4.90;;;;;;;5.61;97.87;99266.15;110352;1276;23037;-79
2023/11/12 04:16:48;;;;;;;;;;;;;;;5.60;97.87;99266.29;110306;1276;23143;-77
2023/11/12 04:19:17;;;;;;;16.50;5.20;;;;;;;5.59;98.05;99263.78;110353;1276;22267;-78
2023/11/12 04:21:47;;;;;;;14.50;5.30;;;;;;;5.60;98.05;99265.64;110299;1276;23500;-77
2023/11/12 04:24:16;;;;;;;19.10;5.70;;;;;;;5.61;98.16;99263.59;110406;1276;23043;-77
2023/11/12 04:26:45;;;;;;;19.50;6.30;;;;;;;5.62;98.12;99263.63;110275;1276;22224;-77
2023/11/12 04:29:14;;;;;;;15.50;5.10;;;;;;;5.63;98.07;99269.73;110386;1273;22897;-77
2023/11/12 04:31:44;;;;;;;17.20;6.20;;;;;;;5.65;98.12;99271.58;110393;1276;22367;-77
2023/11/12 04:34:13;;;;;;;21.00;6.80;;;;;;;5.66;98.12;99269.30;110365;1273;22247;-77
2023/11/12 04:36:43;;;;;;;18.70;6.70;;;;;;;5.67;98.02;99264.11;110196;1262;22240;-78
2023/11/12 04:39:13;;;;;;;18.60;6.80;;;;;;;5.69;98.07;99269.30;110328;1276;22409;-77
2023/11/12 04:41:42;;;;;;;19.20;7.50;;;;;;;5.71;98.09;99267.46;110373;1276;22235;-77
2023/11/12 04:44:12;;;;;;;22.70;8.10;;;;;;;5.72;98.09;99265.81;110381;1276;22382;-77
2023/11/12 04:46:42;;;;;;;19.50;7.70;;;;;;;5.74;98.12;99268.91;110339;1276;22357;-77
2023/11/12 04:49:12;;;;;;;21.90;8.80;;;;;;;5.75;98.12;99271.11;110396;1276;22311;-77
2023/11/12 04:51:41;;;;;;;20.10;7.60;;;;;;;5.77;97.96;99271.91;110206;1276;22244;-80
2023/11/12 04:54:10;;;;;;;20.10;7.40;;;;;;;5.79;98.04;99274.27;110363;1276;22177;-77
2023/11/12 04:56:45;;;;;;;16.20;5.80;;;;;;;5.82;98.03;99274.68;110373;1276;23197;-78
2023/11/12 04:59:15;;;;;;;16.10;5.30;;;;;;;5.83;97.99;99276.32;110193;1276;22183;-78
2023/11/12 05:01:44;;;;;;;17.20;5.50;;;;;;;5.83;97.88;99277.67;110369;1262;23166;-77
2023/11/12 05:04:13;;;;;;;12.80;4.60;;;;;;;5.83;97.94;99273.38;110371;1276;22972;-78
2023/11/12 05:06:42;;;;;;;12.70;4.40;;;;;;;5.85;97.93;99272.45;110359;1276;22387;-77
2023/11/12 05:09:12;;;;;;;12.30;4.70;;;;;;;5.83;97.82;99271.30;110392;1276;22392;-78
2023/11/12 05:11:41;;;;;;;17.00;5.80;;;;;;;5.83;97.88;99279.00;110390;1276;23363;-77
2023/11/12 05:14:10;;;;;;;16.70;4.90;;;;;;;5.84;97.88;99285.16;110392;1275;22928;-78
2023/11/12 05:16:42;;;;;;;15.00;4.80;;;;;;;5.82;97.91;99289.48;110365;1276;22423;-78
2023/11/12 05:19:11;;;;;;;15.70;4.80;;;;;;;5.83;97.75;99290.66;110400;1276;22286;-77
2023/11/12 05:21:44;;;;;;;13.10;4.00;;;;;;;5.84;97.82;99293.70;110382;1275;22211;-79
2023/11/12 05:24:13;;;;;;;13.30;3.50;;;;;;;5.84;97.82;99295.13;110348;1276;22338;-78
2023/11/12 05:26:42;;;;;;;14.30;4.50;;;;;;;5.82;97.72;99301.58;110384;1276;22168;-77
2023/11/12 05:29:11;;;;;;;12.70;3.70;;;;;;;5.80;97.77;99307.72;110365;1273;22257;-77
2023/11/12 05:31:40;;;;;;;14.40;4.90;;;;;;;5.80;97.78;99315.33;110379;1276;22274;-80
2023/11/12 05:34:10;;;;;;;15.10;5.10;;;;;;;5.79;97.78;99314.90;110378;1276;22311;-77
2023/11/12 05:36:40;;;;;;;15.20;4.60;;;;;;;5.79;97.80;99319.23;110361;1276;22238;-77
2023/11/12 05:39:12;;;;;;;12.40;3.50;;;;;;;5.79;97.95;99315.96;110371;1269;22219;-77
2023/11/12 05:41:41;;;;;;;12.90;4.00;;;;;;;5.78;97.82;99318.10;110359;1272;22187;-79
2023/11/12 05:44:10;;;;;;;15.10;4.30;;;;;;;5.76;97.84;99316.75;110347;1272;23321;-77
2023/11/12 05:46:39;;;;;;;12.60;4.00;;;;;;;5.77;97.93;99320.38;110353;1276;22338;-78
2023/11/12 05:49:07;;;;;;;16.30;4.30;;;;;;;5.76;97.88;99319.36;110383;1276;22185;-77
2023/11/12 05:51:40;;;;;;;12.70;3.90;;;;;;;5.74;97.82;99321.10;110378;1276;22259;-77
2023/11/12 05:54:08;;;;;;;11.40;3.50;;;;;;;5.74;97.90;99323.73;110390;1269;23726;-77
2023/11/12 05:56:37;;;;;;;10.70;3.50;;;;;;;5.75;97.91;99323.83;110383;1273;22940;-78
2023/11/12 05:59:05;;;;;;;12.80;3.70;;;;;;;5.77;98.02;99320.79;110398;1273;22218;-78
2023/11/12 06:01:34;;;;;;;14.40;4.60;;;;;;;5.76;97.92;99321.58;110365;1275;22476;-78
2023/11/12 06:04:04;;;;;;;14.70;4.20;;;;;;;5.77;98.02;99326.69;109724;1274;23294;-77
2023/11/12 06:06:32;;;;;;;12.80;3.70;;;;;;;5.78;97.95;99329.33;107582;1276;25604;-77
2023/11/12 06:09:01;;;;;;;14.00;3.90;;;;;;;5.80;97.97;99328.56;107614;1276;25984;-79
2023/11/12 06:11:31;;;;;;;15.80;4.10;;;;;;;5.79;98.00;99327.20;107628;1276;22531;-77
2023/11/12 06:13:59;;;;;;;16.10;4.20;;;;;;;5.79;98.01;99326.35;110375;1276;23239;-77
2023/11/12 06:16:28;;;;;;;12.90;4.30;;;;;;;5.80;98.11;99327.55;110381;1275;22947;-78
2023/11/12 06:18:58;;;;;;;13.10;4.00;;;;;;;5.80;97.97;99328.42;109146;1276;24346;-77
2023/11/12 06:21:27;;;;;;;15.70;4.80;;;;;;;5.80;97.96;99333.44;110364;1275;22455;-79
2023/11/12 06:23:55;;;;;;;17.70;4.30;;;;;;;5.80;97.97;99334.00;110399;1276;22207;-77
2023/11/12 06:26:24;;;;;;;17.70;5.20;;;;;;;5.80;97.98;99336.30;110221;1276;22571;-75
2023/11/12 06:28:52;;;;;;;14.90;4.20;;;;;;;5.80;98.00;99342.13;107566;1275;23285;-77
2023/11/12 06:31:21;;;;;;;14.30;4.70;;;;;;;5.79;97.88;99343.52;107786;1276;22635;-79
2023/11/12 06:33:49;;;;;;;13.90;4.50;;;;;;;5.79;97.95;99339.64;107646;1276;22559;-76
2023/11/12 06:36:19;;;;;;;12.60;4.50;;;;;;;5.80;98.00;99344.18;107629;1276;22642;-77
2023/11/12 06:38:47;;;;;;;14.90;5.00;;;;;;;5.80;97.86;99347.70;107461;1275;23351;-77
2023/11/12 06:41:16;;;;;;;15.70;5.60;;;;;;;5.78;97.88;99343.98;107487;1276;22531;-76
2023/11/12 06:43:45;;;;;;;14.50;5.10;;;;;;;5.77;97.99;99346.79;107529;1276;25495;-78
2023/11/12 06:46:13;;;;;;;11.90;4.50;;;;;;;5.78;98.06;99352.04;107651;1276;25651;-76
2023/11/12 06:48:42;;;;;;;12.50;4.50;;;;;;;5.79;98.06;99355.58;107602;1276;22556;-77
2023/11/12 06:51:19;;;;;;;14.40;4.90;;;;;;;5.78;98.15;99356.48;107576;1276;22520;-76
2023/11/12 06:53:48;;;;;;;15.60;4.80;;;;;;;5.78;98.22;99361.06;107615;1276;22679;-76
2023/11/12 06:56:17;;;;;;;16.60;5.40;;;;;;;5.77;98.14;99365.38;107535;1276;22533;-76
2023/11/12 06:58:46;;;;;;;15.80;5.50;;;;;;;5.78;98.15;99370.16;107559;1275;22535;-76
2023/11/12 07:01:14;;;;;;;16.00;6.10;;;;;;;5.78;98.11;99367.77;107572;1274;25582;-76
2023/11/12 07:03:43;;;;;;;13.80;4.80;;;;;;;5.79;98.15;99374.38;107600;1276;22531;-77
2023/11/12 07:06:12;;;;;;;19.30;5.80;;;;;;;5.80;98.14;99375.84;107581;1276;22534;-76
2023/11/12 07:08:41;;;;;;;12.60;4.50;;;;;;;5.81;98.22;99375.32;107564;1276;24342;-76
2023/11/12 07:11:10;;;;;;;19.10;5.90;;;;;;;5.83;98.35;99378.80;107597;1272;22563;-77
2023/11/12 07:13:39;;;;;;;16.90;5.90;;;;;;;5.85;98.34;99378.81;107606;1275;23934;-77
2023/11/12 07:16:15;;;;;;;17.00;6.50;;;;;;;5.87;98.26;99379.36;107600;1272;22529;-77
2023/11/12 07:18:45;;;;;;;20.70;6.60;;;;;;;5.86;98.20;99378.10;110364;1272;22220;-77
2023/11/12 07:21:14;;;;;;;16.80;5.50;;;;;;;5.85;98.06;99377.67;110405;1270;22255;-78
2023/11/12 07:23:42;;;;;;;19.20;6.60;;;;;;;5.86;98.22;99377.95;110348;1276;23678;-77
2023/11/12 07:26:11;;;;;;;17.50;5.10;;;;;;;5.87;98.26;99380.44;110374;1270;22507;-77
2023/11/12 07:28:40;;;;;;;15.40;5.50;;;;;;;5.88;98.29;99388.61;110348;1270;22234;-78
2023/11/12 07:31:09;;;;;;;16.80;5.60;;;;;;;5.89;98.17;99391.20;110380;1276;23364;-78
2023/11/12 07:33:39;;;;;;;18.00;5.10;;;;;;;5.90;98.20;99395.83;110349;1276;22191;-78
2023/11/12 07:36:09;;;;;;;18.30;6.40;;;;;;;5.92;98.14;99395.10;110372;1276;23784;-79
2023/11/12 07:38:38;;;;;;;14.70;5.00;;;;;;;5.93;98.16;99393.68;110382;1274;22984;-78
2023/11/12 07:41:08;;;;;;;13.40;4.40;;;;;;;5.94;98.08;99392.84;110406;1276;22773;-77
2023/11/12 07:43:38;;;;;;;16.60;5.30;;;;;;;5.95;97.98;99392.42;110371;1276;22181;-78
2023/11/12 07:46:07;;;;;;;13.60;4.60;;;;;;;5.97;97.93;99396.53;110391;1266;22194;-77
2023/11/12 07:48:36;;;;;;;12.50;3.80;;;;;;;5.99;98.07;99400.05;110399;1276;22231;-78
2023/11/12 07:51:05;;;;;;;12.90;4.80;;;;;;;6.01;98.15;99399.30;110392;1276;22200;-77
2023/11/12 07:53:35;;;;;;;17.00;4.30;;;;;;;6.04;98.09;99405.45;110392;1276;22943;-78
2023/11/12 07:56:06;;;;;;;14.30;4.70;;;;;;;6.05;98.00;99402.13;110385;1276;22176;-77
2023/11/12 07:58:35;;;;;;;14.10;4.50;;;;;;;6.07;98.06;99408.40;110378;1273;22219;-78
2023/11/12 08:01:04;;;;;;;14.50;3.80;;;;;;;6.09;98.01;99406.95;110390;1276;22257;-78
2023/11/12 08:03:34;;;;;;;13.80;3.60;;;;;;;6.11;97.96;99407.18;110367;1276;22169;-78
2023/11/12 08:06:03;;;;;;;10.80;3.20;;;;;;;6.13;98.11;99410.87;110397;1276;22510;-78
2023/11/12 08:08:32;;;;;;;13.00;4.60;;;;;;;6.15;98.13;99412.48;110219;1276;22177;-78
2023/11/12 08:11:02;;;;;;;14.90;3.80;;;;;;;6.16;98.09;99415.77;110414;1269;22191;-78
2023/11/12 08:13:31;;;;;;;14.80;5.10;;;;;;;6.18;98.08;99418.14;110382;1276;22422;-79
2023/11/12 08:16:00;;;;;;;15.40;3.80;;;;;;;6.20;98.07;99422.56;110366;1276;22357;-78
2023/11/12 08:18:29;;;;;;;10.50;3.30;;;;;;;6.21;98.05;99416.24;110338;1276;23630;-80
2023/11/12 08:20:58;;;;;;;9.90;3.20;;;;;;;6.21;97.94;99420.59;110401;1276;22872;-78
2023/11/12 08:23:28;;;;;;;13.50;4.20;;;;;;;6.23;97.97;99422.02;110361;1276;22370;-78
2023/11/12 08:25:57;;;;;;;11.30;3.20;;;;;;;6.25;97.95;99426.72;110360;1273;22235;-78
2023/11/12 08:28:27;;;;;;;8.80;3.00;;;;;;;6.27;97.75;99425.10;110275;1273;22202;-78
2023/11/12 08:30:57;;;;;;;10.00;2.80;;;;;;;6.27;97.84;99429.09;110280;1276;22434;-79
2023/11/12 08:33:27;;;;;;;10.40;2.80;;;;;;;6.28;97.80;99434.36;110205;1276;22255;-78
2023/11/12 08:35:55;;;;;;;12.50;3.00;;;;;;;6.30;97.56;99433.08;110347;1276;22194;-79
2023/11/12 08:38:25;;;;;;;15.30;3.30;;;;;;;6.30;97.41;99435.06;110331;1276;22335;-78
2023/11/12 08:40:54;;;;;;;8.30;2.60;;;;;;;6.32;97.46;99437.90;110347;1276;22181;-79
2023/11/12 08:43:24;;;;;;;11.20;2.80;;;;;;;6.33;97.25;99441.88;110325;1275;22223;-78
2023/11/12 08:45:53;;;;;;;8.60;2.40;;;;;;;6.34;97.28;99442.61;110385;1276;22372;-78
2023/11/12 08:48:28;;;;;;;9.50;2.70;;;;;;;6.35;97.26;99445.02;110289;1276;22339;-79
2023/11/12 08:50:58;;;;;;;8.80;2.80;;;;;;;6.37;97.10;99443.48;110392;1276;22486;-78
2023/11/12 08:53:28;;;;;;;9.90;2.90;;;;;;;6.39;97.03;99445.85;110321;1276;22248;-78
2023/11/12 08:55:56;;;;;;;9.70;2.40;;;;;;;6.42;97.11;99445.80;110338;1276;22204;-79
2023/11/12 08:58:28;;;;;;;8.50;2.20;;;;;;;6.44;97.02;99447.52;110315;1272;22188;-80
2023/11/12 09:00:57;;;;;;;10.60;2.70;;;;;;;6.47;97.10;99448.89;110365;1275;22264;-79
2023/11/12 09:03:27;;;;;;;9.60;2.30;;;;;;;6.49;97.09;99451.94;110260;1275;22205;-79
2023/11/12 09:05:55;;;;;;;11.40;2.80;;;;;;;6.52;97.12;99449.20;110246;1275;22940;-80
2023/11/12 09:08:24;;;;;;;9.20;2.20;;;;;;;6.54;97.00;99450.20;110304;1276;23011;-77
2023/11/12 09:10:52;;;;;;;10.60;2.10;;;;;;;6.57;96.87;99454.41;110332;1272;22201;-77
2023/11/12 09:13:22;;;;;;;7.80;2.10;;;;;;;6.58;96.70;99454.67;110238;1273;22216;-79
2023/11/12 09:15:50;;;;;;;11.50;2.50;;;;;;;6.60;96.57;99453.26;110176;1274;22416;-78
2023/11/12 09:18:20;;;;;;;8.60;2.60;;;;;;;6.61;96.45;99452.82;108361;1276;22563;-77
2023/11/12 09:20:49;;;;;;;8.40;2.50;;;;;;;6.62;96.45;99456.17;107703;1276;22551;-77
2023/11/12 09:23:18;;;;;;;10.00;3.00;;;;;;;6.64;96.44;99459.55;107630;1272;22674;-78
2023/11/12 09:25:49;;;;;;;7.60;2.70;;;;;;;6.66;96.52;99459.54;107760;1276;22558;-76
2023/11/12 09:28:18;;;;;;;8.20;2.20;;;;;;;6.67;96.44;99456.95;107885;1276;22570;-77
2023/11/12 09:30:46;;;;;;;9.30;2.70;;;;;;;6.69;96.35;99454.46;107884;1266;22496;-76
2023/11/12 09:33:15;;;;;;;10.00;3.70;;;;;;;6.71;96.54;99459.57;107802;1276;22710;-75
2023/11/12 09:35:44;;;;;;;8.50;2.60;;;;;;;6.73;96.27;99461.77;107677;1269;22541;-75
2023/11/12 09:38:14;;;;;;;9.40;2.50;;;;;;;6.75;96.40;99457.08;107741;1276;22611;-75
2023/11/12 09:40:44;;;;;;;9.60;2.80;;;;;;;6.77;96.26;99455.09;110290;1275;22352;-76
2023/11/12 09:43:14;;;;;;;;;;;;;;;6.79;96.23;99454.42;110303;1270;23468;-76
2023/11/12 09:45:46;;;;;;;11.60;2.80;;;;;;;6.81;96.13;99455.03;110311;1272;22208;-76
2023/11/12 09:48:29;;;;;;;9.80;2.60;;;;;;;6.85;96.04;99454.45;110226;1273;22384;-75
2023/11/12 09:51:01;;;;;;;9.50;2.70;;;;;;;6.90;96.35;99455.48;110157;1270;22396;-75
2023/11/12 09:53:33;;;;;;;6.80;2.00;;;;;;;6.95;96.09;99455.38;110079;1276;22364;-77
2023/11/12 09:56:08;;;;;;;9.90;2.30;;;;;;;6.98;95.86;99453.98;110174;1274;22320;-76
2023/11/12 09:58:38;;;;;;;11.40;3.00;;;;;;;7.02;95.93;99454.73;110274;1273;22159;-76
2023/11/12 10:01:24;;;;;;;9.90;2.10;;;;;;;7.06;95.61;99452.23;110254;1276;22997;-78
2023/11/12 10:04:05;;;;;;;8.90;3.10;;;;;;;7.09;95.32;99445.13;110200;1274;23041;-76
2023/11/12 10:06:55;;;;;;;6.00;1.60;;;;;;;7.13;95.43;99443.17;110195;1276;22412;-76
2023/11/12 10:09:34;;;;;;;9.00;2.20;;;;;;;7.16;94.99;99439.98;110138;1274;23094;-76
2023/11/12 10:12:08;;;;;;;5.60;1.80;;;;;;;7.17;94.53;99439.79;110209;1270;22376;-76
2023/11/12 10:14:42;;;;;;;9.70;2.30;;;;;;;7.18;94.70;99432.73;110191;1270;22211;-76
2023/11/12 10:17:11;;;;;;;8.10;2.00;;;;;;;7.21;94.55;99433.80;110204;1273;23026;-79
2023/11/12 10:19:56;;;;;;;8.50;2.00;;;;;;;7.24;94.47;99430.13;110168;1269;22883;-78
2023/11/12 10:22:38;;;;;;;6.50;2.00;;;;;;;7.29;94.35;99429.31;110172;1276;22396;-79
2023/11/12 10:25:09;;;;;;;8.30;1.90;;;;;;;7.32;94.16;99432.01;110171;1269;22435;-76
2023/11/12 10:28:00;;;;;;;8.40;1.70;;;;;;;7.35;94.08;99433.07;110232;1273;22306;-76
2023/11/12 10:30:55;;;;;;;6.70;1.90;;;;;;;7.39;93.94;99436.20;109998;1264;23129;-77
2023/11/12 10:34:07;;;;;;;8.50;2.20;;;;;;;7.40;93.62;99440.21;110227;1270;22199;-77
2023/11/12 10:37:09;;;;;;;6.00;1.70;;;;;;;7.39;93.53;99438.59;110202;1268;22925;-76
2023/11/12 10:39:41;;;;;;;8.80;1.90;;;;;;;7.41;93.60;99440.44;110306;1276;23084;-77
2023/11/12 10:42:24;;;;;;;8.40;2.50;;;;;;;7.45;93.76;99443.59;110302;1276;22358;-76
2023/11/12 10:45:04;;;;;;;9.80;3.00;;;;;;;7.48;93.72;99436.83;110238;1272;22410;-77
2023/11/12 10:47:59;;;;;;;9.20;2.20;;;;;;;7.51;93.63;99436.67;110258;1269;23243;-76
2023/11/12 10:50:30;;;;;;;6.40;1.60;;;;;;;7.50;93.26;99432.12;110236;1276;22735;-76
2023/11/12 10:53:04;;;;;;;7.10;1.70;;;;;;;7.50;93.13;99435.05;110306;1276;23033;-77
2023/11/12 10:55:36;;;;;;;10.30;2.80;;;;;;;7.50;93.18;99431.07;110330;1270;23105;-77
2023/11/12 10:58:08;;;;;;;9.80;2.60;;;;;;;7.52;93.21;99428.66;110314;1266;22223;-77
2023/11/12 11:00:40;;;;;;;10.60;2.40;;;;;;;7.54;92.88;99427.70;110253;1273;22443;-76
2023/11/12 11:03:10;;;;;;;7.00;2.00;;;;;;;7.55;92.92;99427.63;110280;1270;22346;-77
2023/11/12 11:05:47;;;;;;;7.80;2.50;;;;;;;7.57;92.38;99428.90;110303;1272;22217;-77
2023/11/12 11:08:19;;;;;;;7.00;1.80;;;;;;;7.58;92.38;99424.02;110202;1269;22839;-79
2023/11/12 11:10:57;;;;;;;9.00;2.30;;;;;;;7.60;92.20;99429.77;110260;1270;22414;-81
2023/11/12 11:13:33;;;;;;;9.80;2.80;;;;;;;7.60;91.86;99432.66;110249;1276;22219;-80
2023/11/12 11:16:41;;;;;;;7.40;2.40;;;;;;;7.62;91.51;99430.46;110307;1273;22396;-79
2023/11/12 11:19:12;;;;;;;8.80;2.30;;;;;;;7.62;91.35;99429.96;110191;1269;22293;-78
2023/11/12 11:21:41;;;;;;;9.80;2.30;;;;;;;7.63;91.54;99426.09;110294;1273;22233;-78
2023/11/12 11:24:09;;;;;;;11.30;2.30;;;;;;;7.66;91.45;99426.00;110307;1276;22170;-81
2023/11/12 11:26:40;;;;;;;8.20;2.10;;;;;;;7.70;91.31;99430.00;110325;1270;22164;-79
2023/11/12 11:29:13;;;;;;;9.30;2.30;;;;;;;7.72;90.72;99429.83;110322;1270;22216;-80
2023/11/12 11:32:17;;;;;;;8.20;2.20;;;;;;;7.74;90.84;99426.60;110332;1270;23052;-79
2023/11/12 11:34:48;;;;;;;14.20;2.30;;;;;;;7.77;90.63;99426.38;110281;1267;22636;-79
2023/11/12 11:37:19;;;;;;;7.70;2.20;;;;;;;7.79;90.20;99429.60;110325;1276;22993;-79
2023/11/12 11:39:48;;;;;;;8.70;2.40;;;;;;;7.81;90.12;99433.44;110252;1271;22214;-78
2023/11/12 11:42:18;;;;;;;11.10;2.90;;;;;;;7.83;90.09;99435.64;110284;1276;22225;-79
2023/11/12 11:44:48;;;;;;;;;;;;;;;7.86;90.19;99431.74;110286;1273;22502;-78